createdAt,value
2022-12-25T00:01:49.543Z,98519.67
2022-12-25T00:04:17.614Z,98515.39
2022-12-25T00:06:45.922Z,98518.36
2022-12-25T00:09:13.884Z,98524.55
2022-12-25T00:11:41.999Z,98523.92
2022-12-25T00:14:10.138Z,98533.04
2022-12-25T00:16:38.222Z,98539.89
2022-12-25T00:19:06.258Z,98540.14
2022-12-25T00:21:34.331Z,98538.27
2022-12-25T00:24:03.649Z,98544.08
2022-12-25T00:26:31.774Z,98543.75
2022-12-25T00:28:59.642Z,98549.45
2022-12-25T00:31:27.834Z,98554.08
2022-12-25T00:33:55.744Z,98558.65
2022-12-25T00:36:23.914Z,98558.47
2022-12-25T00:38:51.977Z,98565.01
2022-12-25T00:41:40.067Z,98563.81
2022-12-25T00:44:08.774Z,98571.17
2022-12-25T00:46:37.360Z,98574.00
2022-12-25T00:49:05.961Z,98577.30
2022-12-25T00:51:34.273Z,98578.95
2022-12-25T00:54:02.357Z,98587.29
2022-12-25T00:56:30.349Z,98593.21
2022-12-25T00:58:58.104Z,98595.73
2022-12-25T01:01:25.976Z,98597.70
2022-12-25T01:03:55.018Z,98599.88
2022-12-25T01:06:22.897Z,98596.45
2022-12-25T01:09:09.391Z,98594.59
2022-12-25T01:11:37.214Z,98599.98
2022-12-25T01:14:05.359Z,98607.43
2022-12-25T01:16:33.245Z,98615.21
2022-12-25T01:19:01.187Z,98618.96
2022-12-25T01:21:29.148Z,98623.29
2022-12-25T01:23:57.393Z,98627.73
2022-12-25T01:26:26.960Z,98630.91
2022-12-25T01:28:55.280Z,98637.80
2022-12-25T01:31:24.643Z,98628.91
2022-12-25T01:33:53.097Z,98632.70
2022-12-25T01:36:23.819Z,98632.41
2022-12-25T01:38:53.602Z,98641.02
2022-12-25T01:41:24.373Z,98644.13
2022-12-25T01:44:13.570Z,98643.73
2022-12-25T01:46:41.513Z,98646.92
2022-12-25T01:49:21.071Z,98649.41
2022-12-25T01:51:54.203Z,98650.09
2022-12-25T01:54:27.591Z,98652.35
2022-12-25T01:56:59.776Z,98649.05
2022-12-25T01:59:28.049Z,98647.02
2022-12-25T02:02:00.083Z,98645.02
2022-12-25T02:04:39.848Z,98647.50
2022-12-25T02:07:11.907Z,98651.86
2022-12-25T02:09:39.977Z,98652.83
2022-12-25T02:12:09.853Z,98654.91
2022-12-25T02:14:38.260Z,98665.45
2022-12-25T02:17:15.320Z,98670.30
2022-12-25T02:20:02.132Z,98667.23
2022-12-25T02:22:40.541Z,98665.46
2022-12-25T02:25:23.657Z,98667.77
2022-12-25T02:28:06.528Z,98666.14
2022-12-25T02:30:44.216Z,98667.04
2022-12-25T02:33:49.593Z,98671.07
2022-12-25T02:36:23.855Z,98670.27
2022-12-25T02:39:13.280Z,98668.02
2022-12-25T02:41:46.242Z,98664.30
2022-12-25T02:44:36.684Z,98660.60
2022-12-25T02:47:25.630Z,98663.03
2022-12-25T02:50:14.822Z,98662.13
2022-12-25T02:53:03.299Z,98656.78
2022-12-25T02:55:52.385Z,98661.34
2022-12-25T02:58:41.567Z,98660.33
2022-12-25T03:01:33.734Z,98660.47
2022-12-25T03:04:25.784Z,98661.20
2022-12-25T03:07:00.490Z,98667.45
2022-12-25T03:09:53.371Z,98663.80
2022-12-25T03:13:10.656Z,98660.46
2022-12-25T03:16:04.850Z,98656.27
2022-12-25T03:18:33.908Z,98659.21
2022-12-25T03:21:20.518Z,98662.48
2022-12-25T03:24:12.843Z,98663.55
2022-12-25T03:26:55.872Z,98668.00
2022-12-25T03:29:50.452Z,98665.63
2022-12-25T03:32:48.419Z,98667.79
2022-12-25T03:35:28.349Z,98672.70
2022-12-25T03:38:15.022Z,98680.13
2022-12-25T03:41:27.691Z,98684.97
2022-12-25T03:45:01.623Z,98691.58
2022-12-25T03:47:59.219Z,98688.57
2022-12-25T03:50:57.530Z,98688.81
2022-12-25T03:53:46.282Z,98687.88
2022-12-25T03:56:35.918Z,98689.76
2022-12-25T03:59:24.031Z,98693.95
2022-12-25T04:02:11.216Z,98700.33
2022-12-25T04:04:57.552Z,98697.98
2022-12-25T04:07:44.146Z,98703.40
2022-12-25T04:10:30.820Z,98707.02
2022-12-25T04:13:17.437Z,98711.31
2022-12-25T04:16:03.955Z,98720.13
2022-12-25T04:18:50.529Z,98722.48
2022-12-25T04:21:37.216Z,98722.11
2022-12-25T04:24:23.862Z,98725.10
2022-12-25T04:27:10.350Z,98724.50
2022-12-25T04:29:56.940Z,98726.95
2022-12-25T04:32:43.409Z,98728.08
2022-12-25T04:35:30.573Z,98733.68
2022-12-25T04:37:58.470Z,98738.91
2022-12-25T04:40:26.300Z,98731.90
2022-12-25T04:42:54.068Z,98732.48
2022-12-25T04:45:21.963Z,98731.52
2022-12-25T04:47:49.892Z,98736.11
2022-12-25T04:50:17.643Z,98736.16
2022-12-25T04:52:45.365Z,98731.55
2022-12-25T04:55:13.166Z,98725.27
2022-12-25T04:57:40.885Z,98733.94
2022-12-25T05:00:09.122Z,98734.52
2022-12-25T05:02:37.169Z,98731.95
2022-12-25T05:05:05.662Z,98725.40
2022-12-25T05:07:33.939Z,98724.48
2022-12-25T05:10:01.900Z,98730.42
2022-12-25T05:12:29.907Z,98732.84
2022-12-25T05:14:57.710Z,98736.45
2022-12-25T05:17:25.494Z,98737.09
2022-12-25T05:19:53.298Z,98739.80
2022-12-25T05:22:21.153Z,98741.71
2022-12-25T05:24:49.037Z,98741.84
2022-12-25T05:27:17.089Z,98740.55
2022-12-25T05:29:45.144Z,98741.20
2022-12-25T05:32:13.114Z,98742.45
2022-12-25T05:34:41.054Z,98750.44
2022-12-25T05:37:09.111Z,98750.83
2022-12-25T05:39:37.170Z,98753.08
2022-12-25T05:42:05.098Z,98757.27
2022-12-25T05:44:32.908Z,98763.58
2022-12-25T05:47:00.845Z,98769.71
2022-12-25T05:49:28.817Z,98771.89
2022-12-25T05:51:56.698Z,98775.64
2022-12-25T05:54:24.859Z,98773.45
2022-12-25T05:56:52.825Z,98774.44
2022-12-25T05:59:20.773Z,98765.16
2022-12-25T06:01:48.901Z,98763.41
2022-12-25T06:04:16.841Z,98764.66
2022-12-25T06:06:44.852Z,98770.21
2022-12-25T06:09:13.576Z,98779.94
2022-12-25T06:11:42.110Z,98785.28
2022-12-25T06:14:13.627Z,98789.41
2022-12-25T06:16:41.624Z,98788.89
2022-12-25T06:19:09.727Z,98789.21
2022-12-25T06:21:37.743Z,98790.90
2022-12-25T06:24:06.002Z,98795.70
2022-12-25T06:26:34.144Z,98801.00
2022-12-25T06:29:02.147Z,98806.79
2022-12-25T06:31:30.132Z,98806.89
2022-12-25T06:33:57.989Z,98804.77
2022-12-25T06:36:29.338Z,98812.35
2022-12-25T06:39:01.342Z,98817.30
2022-12-25T06:41:30.396Z,98822.59
2022-12-25T06:44:01.294Z,98821.05
2022-12-25T06:46:30.514Z,98826.11
2022-12-25T06:48:59.403Z,98824.75
2022-12-25T06:51:31.357Z,98834.33
2022-12-25T06:54:04.075Z,98847.02
2022-12-25T06:56:33.898Z,98849.47
2022-12-25T06:59:07.640Z,98853.00
2022-12-25T07:01:44.212Z,98852.83
2022-12-25T07:04:25.544Z,98858.05
2022-12-25T07:06:53.583Z,98866.27
2022-12-25T07:09:21.419Z,98874.42
2022-12-25T07:11:49.290Z,98880.81
2022-12-25T07:14:24.435Z,98887.03
2022-12-25T07:16:52.568Z,98898.79
2022-12-25T07:19:20.511Z,98906.38
2022-12-25T07:21:48.419Z,98914.62
2022-12-25T07:24:23.733Z,98915.39
2022-12-25T07:26:51.822Z,98914.77
2022-12-25T07:29:19.909Z,98913.45
2022-12-25T07:31:48.094Z,98920.61
2022-12-25T07:34:19.400Z,98922.92
2022-12-25T07:36:47.413Z,98922.41
2022-12-25T07:39:16.379Z,98925.02
2022-12-25T07:41:44.831Z,98927.30
2022-12-25T07:44:16.416Z,98924.34
2022-12-25T07:46:44.319Z,98926.02
2022-12-25T07:49:12.455Z,98923.52
2022-12-25T07:51:40.350Z,98913.15
2022-12-25T07:54:08.437Z,98911.84
2022-12-25T07:56:36.417Z,98912.30
2022-12-25T07:59:04.292Z,98911.70
2022-12-25T08:01:32.363Z,98913.58
2022-12-25T08:04:02.382Z,98913.19
2022-12-25T08:06:33.040Z,98922.39
2022-12-25T08:09:09.730Z,98921.13
2022-12-25T08:11:38.654Z,98925.17
2022-12-25T08:14:08.017Z,98917.92
2022-12-25T08:16:36.535Z,98920.31
2022-12-25T08:19:04.414Z,98917.30
2022-12-25T08:21:32.188Z,98923.23
2022-12-25T08:24:00.160Z,98930.44
2022-12-25T08:26:28.161Z,98927.73
2022-12-25T08:28:56.141Z,98917.94
2022-12-25T08:31:26.838Z,98918.16
2022-12-25T08:33:56.944Z,98915.32
2022-12-25T08:36:24.926Z,98909.86
2022-12-25T08:38:57.012Z,98912.30
2022-12-25T08:41:27.186Z,98907.93
2022-12-25T08:43:55.066Z,98911.39
2022-12-25T08:46:23.470Z,98911.11
2022-12-25T08:48:51.449Z,98924.33
2022-12-25T08:51:20.519Z,98936.79
2022-12-25T08:53:49.897Z,98941.16
2022-12-25T08:59:21.708Z,98956.05
2022-12-25T09:01:49.879Z,98954.63
2022-12-25T09:04:17.911Z,98954.52
2022-12-25T09:06:45.751Z,98962.27
2022-12-25T09:09:13.667Z,98963.44
2022-12-25T09:11:41.670Z,98968.33
2022-12-25T09:14:09.936Z,98968.98
2022-12-25T09:16:37.885Z,98966.47
2022-12-25T09:19:05.690Z,98970.00
2022-12-25T09:21:33.558Z,98975.36
2022-12-25T09:24:01.452Z,98974.33
2022-12-25T09:26:29.431Z,98976.84
2022-12-25T09:28:57.703Z,98973.48
2022-12-25T09:31:25.894Z,98975.84
2022-12-25T09:33:58.033Z,98973.85
2022-12-25T09:36:26.325Z,98976.03
2022-12-25T09:38:54.239Z,98974.86
2022-12-25T09:41:28.445Z,98983.75
2022-12-25T09:44:01.057Z,98989.30
2022-12-25T09:46:39.550Z,98989.96
2022-12-25T09:49:15.812Z,98990.73
2022-12-25T09:51:44.512Z,98990.32
2022-12-25T09:54:49.949Z,98995.05
2022-12-25T09:57:17.963Z,98995.70
2022-12-25T09:59:47.571Z,98988.77
2022-12-25T10:02:24.668Z,98984.88
2022-12-25T10:05:27.403Z,98984.73
2022-12-25T10:08:23.228Z,98983.19
2022-12-25T10:10:55.291Z,98977.92
2022-12-25T10:13:50.302Z,98979.58
2022-12-25T10:16:39.868Z,98975.25
2022-12-25T10:19:17.892Z,98975.86
2022-12-25T10:21:46.558Z,98972.33
2022-12-25T10:24:30.755Z,98963.10
2022-12-25T10:27:04.861Z,98961.30
2022-12-25T10:29:35.673Z,98960.70
2022-12-25T10:32:04.462Z,98963.27
2022-12-25T10:34:32.600Z,98955.56
2022-12-25T10:37:02.122Z,98953.69
2022-12-25T10:39:30.391Z,98953.98
2022-12-25T10:42:04.438Z,98951.67
2022-12-25T10:44:33.432Z,98947.45
2022-12-25T10:47:04.248Z,98938.48
2022-12-25T10:49:36.953Z,98940.27
2022-12-25T10:52:19.155Z,98948.55
2022-12-25T10:54:47.193Z,98949.80
2022-12-25T11:01:33.544Z,98932.92
2022-12-25T11:04:02.286Z,98934.84
2022-12-25T11:06:32.491Z,98935.29
2022-12-25T11:09:02.471Z,98937.05
2022-12-25T11:11:30.915Z,98931.86
2022-12-25T11:14:03.214Z,98924.89
2022-12-25T11:16:38.149Z,98924.08
2022-12-25T11:19:25.053Z,98918.75
2022-12-25T11:21:55.995Z,98918.65
2022-12-25T11:24:30.135Z,98914.56
2022-12-25T11:27:04.584Z,98913.73
2022-12-25T11:29:49.271Z,98908.11
2022-12-25T11:32:23.443Z,98904.64
2022-12-25T11:34:51.488Z,98901.82
2022-12-25T11:37:33.496Z,98909.45
2022-12-25T11:40:02.707Z,98915.59
2022-12-25T11:42:40.147Z,98913.54
2022-12-25T11:45:21.252Z,98907.20
2022-12-25T11:47:49.531Z,98911.70
2022-12-25T11:50:56.521Z,98912.51
2022-12-25T11:53:39.894Z,98902.71
2022-12-25T11:56:14.936Z,98901.34
2022-12-25T11:58:50.442Z,98902.83
2022-12-25T12:01:30.810Z,98898.80
2022-12-25T12:04:02.146Z,98898.83
2022-12-25T12:06:40.454Z,98900.50
2022-12-25T12:09:26.609Z,98898.14
2022-12-25T12:12:17.731Z,98889.42
2022-12-25T12:14:56.263Z,98890.09
2022-12-25T12:17:24.416Z,98891.80
2022-12-25T12:19:53.071Z,98885.90
2022-12-25T12:22:25.686Z,98887.77
2022-12-25T12:24:56.144Z,98885.70
2022-12-25T12:27:33.127Z,98880.95
2022-12-25T12:30:01.971Z,98881.19
2022-12-25T12:32:47.783Z,98882.17
2022-12-25T12:35:38.393Z,98877.63
2022-12-25T12:38:17.380Z,98872.72
2022-12-25T12:40:53.857Z,98872.97
2022-12-25T12:43:36.476Z,98872.17
2022-12-25T12:46:18.732Z,98865.45
2022-12-25T12:48:51.551Z,98864.39
2022-12-25T12:51:34.027Z,98864.98
2022-12-25T12:54:22.268Z,98865.74
2022-12-25T12:56:59.360Z,98866.70
2022-12-25T12:59:37.057Z,98868.90
2022-12-25T13:02:39.143Z,98870.30
2022-12-25T13:05:15.896Z,98865.40
2022-12-25T13:07:55.988Z,98871.44
2022-12-25T13:10:32.404Z,98872.38
2022-12-25T13:13:04.892Z,98865.34
2022-12-25T13:15:34.597Z,98868.73
2022-12-25T13:18:07.122Z,98872.50
2022-12-25T13:21:18.223Z,98872.64
2022-12-25T13:23:46.205Z,98870.58
2022-12-25T13:26:17.165Z,98873.37
2022-12-25T13:28:47.964Z,98874.86
2022-12-25T13:31:23.585Z,98875.94
2022-12-25T13:33:51.551Z,98871.16
2022-12-25T13:36:19.589Z,98870.58
2022-12-25T13:38:49.269Z,98864.88
2022-12-25T13:41:40.140Z,98863.42
2022-12-25T13:44:22.460Z,98868.39
2022-12-25T13:46:50.712Z,98874.23
2022-12-25T13:49:21.381Z,98874.44
2022-12-25T13:51:50.534Z,98859.72
2022-12-25T13:54:19.466Z,98856.69
2022-12-25T13:56:49.682Z,98859.94
2022-12-25T13:59:19.295Z,98860.42
2022-12-25T14:01:47.969Z,98851.26
2022-12-25T14:04:22.272Z,98835.98
2022-12-25T14:06:51.167Z,98831.77
2022-12-25T14:09:20.335Z,98830.79
2022-12-25T14:11:52.417Z,98834.59
2022-12-25T14:14:22.297Z,98835.59
2022-12-25T14:16:53.597Z,98844.98
2022-12-25T14:19:33.359Z,98856.20
2022-12-25T14:22:03.148Z,98860.59
2022-12-25T14:24:33.330Z,98858.55
2022-12-25T14:27:05.414Z,98860.63
2022-12-25T14:29:39.529Z,98855.63
2022-12-25T14:32:08.200Z,98855.39
2022-12-25T14:34:36.220Z,98840.42
2022-12-25T14:37:04.693Z,98834.99
2022-12-25T14:39:34.957Z,98823.57
2022-12-25T14:42:22.959Z,98814.68
2022-12-25T14:45:03.525Z,98803.28
2022-12-25T14:47:33.708Z,98798.55
2022-12-25T14:50:01.581Z,98807.55
2022-12-25T14:52:43.718Z,98824.46
2022-12-25T14:55:21.570Z,98833.70
2022-12-25T14:57:53.775Z,98840.13
2022-12-25T15:00:29.962Z,98840.07
2022-12-25T15:02:59.989Z,98843.76
2022-12-25T15:05:37.457Z,98846.95
2022-12-25T15:08:11.412Z,98850.02
2022-12-25T15:13:29.427Z,98860.59
2022-12-25T15:16:12.649Z,98858.98
2022-12-25T15:18:43.894Z,98865.18
2022-12-25T15:21:17.594Z,98864.46
2022-12-25T15:23:45.540Z,98856.30
2022-12-25T15:26:14.142Z,98849.78
2022-12-25T15:28:42.562Z,98837.40
2022-12-25T15:31:35.204Z,98834.42
2022-12-25T15:34:14.703Z,98832.95
2022-12-25T15:36:42.830Z,98832.77
2022-12-25T15:39:10.790Z,98827.36
2022-12-25T15:41:58.287Z,98818.23
2022-12-25T15:44:26.450Z,98811.19
2022-12-25T15:46:54.780Z,98805.34
2022-12-25T15:49:22.710Z,98794.45
2022-12-25T15:51:50.577Z,98790.52
2022-12-25T15:54:18.600Z,98795.77
2022-12-25T15:56:57.070Z,98799.73
2022-12-25T15:59:25.077Z,98804.27
2022-12-25T16:01:56.749Z,98801.42
2022-12-25T16:04:26.715Z,98797.16
2022-12-25T16:06:55.812Z,98790.84
2022-12-25T16:09:23.822Z,98778.85
2022-12-25T16:11:51.591Z,98782.91
2022-12-25T16:14:19.705Z,98787.99
2022-12-25T16:16:47.717Z,98797.13
2022-12-25T16:19:15.663Z,98797.48
2022-12-25T16:21:44.833Z,98793.96
2022-12-25T16:24:13.715Z,98798.13
2022-12-25T16:26:42.507Z,98795.39
2022-12-25T16:29:10.532Z,98787.90
2022-12-25T16:31:38.846Z,98792.35
2022-12-25T16:34:07.329Z,98793.92
2022-12-25T16:36:36.911Z,98789.85
2022-12-25T16:39:05.354Z,98784.52
2022-12-25T16:41:33.171Z,98785.71
2022-12-25T16:44:09.436Z,98786.73
2022-12-25T16:46:39.993Z,98781.95
2022-12-25T16:49:08.788Z,98781.61
2022-12-25T16:51:36.888Z,98779.98
2022-12-25T16:54:04.951Z,98779.12
2022-12-25T16:56:32.803Z,98780.77
2022-12-25T16:59:01.130Z,98786.54
2022-12-25T17:01:29.736Z,98789.60
2022-12-25T17:04:02.878Z,98788.30
2022-12-25T17:06:30.954Z,98787.88
2022-12-25T17:08:59.829Z,98789.33
2022-12-25T17:11:30.074Z,98777.66
2022-12-25T17:14:02.194Z,98774.33
2022-12-25T17:16:35.780Z,98773.05
2022-12-25T17:19:19.409Z,98765.56
2022-12-25T17:21:47.459Z,98757.23
2022-12-25T17:24:15.971Z,98743.85
2022-12-25T17:26:44.535Z,98732.17
2022-12-25T17:29:15.912Z,98724.25
2022-12-25T17:31:46.774Z,98714.27
2022-12-25T17:34:15.068Z,98725.12
2022-12-25T17:36:42.917Z,98727.92
2022-12-25T17:39:11.238Z,98723.52
2022-12-25T17:41:39.486Z,98722.20
2022-12-25T17:44:07.388Z,98727.52
2022-12-25T17:46:35.349Z,98731.13
2022-12-25T17:49:03.407Z,98732.23
2022-12-25T17:51:31.988Z,98734.70
2022-12-25T17:54:05.395Z,98732.73
2022-12-25T17:56:33.540Z,98729.88
2022-12-25T17:59:12.208Z,98724.34
2022-12-25T18:01:40.450Z,98720.31
2022-12-25T18:04:08.436Z,98727.41
2022-12-25T18:06:37.218Z,98724.43
2022-12-25T18:09:06.390Z,98725.69
2022-12-25T18:11:37.617Z,98726.38
2022-12-25T18:14:06.410Z,98714.83
2022-12-25T18:16:36.876Z,98712.90
2022-12-25T18:19:05.374Z,98716.45
2022-12-25T18:21:33.366Z,98717.88
2022-12-25T18:24:06.331Z,98729.37
2022-12-25T18:26:34.562Z,98734.95
2022-12-25T18:29:03.041Z,98735.73
2022-12-25T18:31:31.136Z,98723.85
2022-12-25T18:33:59.929Z,98715.02
2022-12-25T18:36:29.595Z,98713.77
2022-12-25T18:38:58.824Z,98716.45
2022-12-25T18:41:28.436Z,98718.30
2022-12-25T18:43:57.499Z,98713.92
2022-12-25T18:46:26.811Z,98712.67
2022-12-25T18:48:56.544Z,98711.36
2022-12-25T18:51:24.802Z,98711.63
2022-12-25T18:53:52.760Z,98695.24
2022-12-25T18:56:20.846Z,98694.91
2022-12-25T18:58:48.664Z,98696.09
2022-12-25T19:01:19.803Z,98704.27
2022-12-25T19:03:51.766Z,98699.38
2022-12-25T19:06:24.298Z,98703.21
2022-12-25T19:08:52.574Z,98704.98
2022-12-25T19:11:21.802Z,98701.67
2022-12-25T19:13:49.820Z,98706.83
2022-12-25T19:16:18.245Z,98700.85
2022-12-25T19:18:46.463Z,98700.14
2022-12-25T19:21:14.262Z,98695.23
2022-12-25T19:23:42.184Z,98690.88
2022-12-25T19:26:10.684Z,98687.58
2022-12-25T19:28:39.749Z,98683.38
2022-12-25T19:31:08.442Z,98676.04
2022-12-25T19:33:40.740Z,98668.16
2022-12-25T19:36:12.284Z,98670.27
2022-12-25T19:38:40.348Z,98668.66
2022-12-25T19:41:09.183Z,98666.84
2022-12-25T19:43:39.343Z,98666.50
2022-12-25T19:46:10.581Z,98669.38
2022-12-25T19:48:38.451Z,98673.19
2022-12-25T19:51:19.729Z,98667.91
2022-12-25T19:53:48.205Z,98662.11
2022-12-25T19:56:16.466Z,98657.46
2022-12-25T19:58:44.930Z,98648.80
2022-12-25T20:01:17.035Z,98642.23
2022-12-25T20:03:46.368Z,98634.33
2022-12-25T20:06:20.050Z,98630.86
2022-12-25T20:08:49.772Z,98628.56
2022-12-25T20:11:17.997Z,98628.89
2022-12-25T20:13:46.386Z,98622.83
2022-12-25T20:16:14.349Z,98621.67
2022-12-25T20:18:42.523Z,98621.79
2022-12-25T20:21:16.538Z,98622.65
2022-12-25T20:23:45.826Z,98623.86
2022-12-25T20:26:15.309Z,98628.13
2022-12-25T20:28:43.707Z,98618.33
2022-12-25T20:31:17.072Z,98617.71
2022-12-25T20:33:45.853Z,98616.18
2022-12-25T20:36:14.210Z,98603.08
2022-12-25T20:38:42.516Z,98602.60
2022-12-25T20:41:29.989Z,98604.41
2022-12-25T20:43:58.445Z,98600.00
2022-12-25T20:46:26.610Z,98597.86
2022-12-25T20:48:54.719Z,98595.82
2022-12-25T20:51:25.687Z,98596.30
2022-12-25T20:53:55.292Z,98592.10
2022-12-25T20:56:26.313Z,98587.85
2022-12-25T20:58:59.831Z,98580.83
2022-12-25T21:01:28.751Z,98579.23
2022-12-25T21:03:57.027Z,98584.31
2022-12-25T21:06:25.277Z,98588.52
2022-12-25T21:08:53.111Z,98581.34
2022-12-25T21:11:22.045Z,98575.17
2022-12-25T21:13:50.127Z,98569.31
2022-12-25T21:16:21.682Z,98553.86
2022-12-25T21:18:50.385Z,98537.75
2022-12-25T21:21:19.342Z,98529.20
2022-12-25T21:23:47.611Z,98538.09
2022-12-25T21:26:22.845Z,98543.42
2022-12-25T21:28:54.413Z,98548.86
2022-12-25T21:31:22.906Z,98553.13
2022-12-25T21:33:54.630Z,98547.07
2022-12-25T21:36:27.393Z,98553.77
2022-12-25T21:39:02.441Z,98560.21
2022-12-25T21:41:32.241Z,98556.83
2022-12-25T21:44:00.766Z,98546.40
2022-12-25T21:46:29.208Z,98543.49
2022-12-25T21:48:57.442Z,98537.38
2022-12-25T21:51:48.643Z,98537.67
2022-12-25T21:54:18.458Z,98537.69
2022-12-25T21:56:47.323Z,98541.88
2022-12-25T21:59:20.113Z,98534.38
2022-12-25T22:01:50.141Z,98525.30
2022-12-25T22:04:20.454Z,98518.45
2022-12-25T22:07:07.443Z,98517.65
2022-12-25T22:09:35.315Z,98531.58
2022-12-25T22:12:22.315Z,98537.16
2022-12-25T22:14:54.269Z,98537.67
2022-12-25T22:17:47.073Z,98530.73
2022-12-25T22:20:24.196Z,98518.95
2022-12-25T22:22:52.693Z,98523.66
2022-12-25T22:25:20.683Z,98522.03
2022-12-25T22:27:48.844Z,98516.84
2022-12-25T22:30:19.769Z,98506.05
2022-12-25T22:32:48.767Z,98503.83
2022-12-25T22:35:17.538Z,98507.31
2022-12-25T22:37:45.597Z,98500.55
2022-12-25T22:40:14.634Z,98497.89
2022-12-25T22:42:42.625Z,98494.46
2022-12-25T22:45:12.199Z,98479.05
2022-12-25T22:47:40.467Z,98489.09
2022-12-25T22:50:09.193Z,98486.52
2022-12-25T22:52:37.323Z,98484.23
2022-12-25T22:55:07.686Z,98487.01
2022-12-25T22:57:35.990Z,98483.35
2022-12-25T23:00:06.082Z,98485.83
2022-12-25T23:02:35.405Z,98479.16
2022-12-25T23:05:04.126Z,98481.70
2022-12-25T23:07:32.069Z,98490.33
2022-12-25T23:09:59.908Z,98497.38
2022-12-25T23:12:46.431Z,98493.96
2022-12-25T23:15:14.460Z,98498.14
2022-12-25T23:18:00.661Z,98490.09
2022-12-25T23:20:47.275Z,98492.08
2022-12-25T23:23:35.439Z,98496.54
2022-12-25T23:26:09.973Z,98496.02
2022-12-25T23:29:00.684Z,98485.94
2022-12-25T23:31:35.994Z,98479.16
2022-12-25T23:34:05.378Z,98477.31
2022-12-25T23:36:34.127Z,98472.12
2022-12-25T23:39:08.956Z,98462.14
2022-12-25T23:41:39.701Z,98461.45
2022-12-25T23:44:08.244Z,98453.71
2022-12-25T23:46:37.337Z,98442.31
2022-12-25T23:49:06.315Z,98438.44
2022-12-25T23:51:39.528Z,98431.30
2022-12-25T23:54:08.395Z,98432.80
2022-12-25T23:56:37.113Z,98424.80
2022-12-25T23:59:05.997Z,98417.27
